createdAt,value
2019-05-01T00:01:34.435Z,46.87
2019-05-01T00:04:29.915Z,48.77
2019-05-01T00:06:59.910Z,49.33
2019-05-01T00:09:26.852Z,46.73
2019-05-01T00:11:54.021Z,49.70
2019-05-01T00:14:21.446Z,47.30
2019-05-01T00:16:48.804Z,45.33
2019-05-01T00:19:15.721Z,50.90
2019-05-01T00:21:42.672Z,49.63
2019-05-01T00:24:09.588Z,50.00
2019-05-01T00:26:36.563Z,46.80
2019-05-01T00:29:03.593Z,50.07
2019-05-01T00:31:30.546Z,52.80
2019-05-01T00:33:57.463Z,49.93
2019-05-01T00:36:24.431Z,52.57
2019-05-01T00:38:51.355Z,53.87
2019-05-01T00:41:18.298Z,52.50
2019-05-01T00:43:45.209Z,57.77
2019-05-01T00:46:12.185Z,59.87
2019-05-01T00:48:39.096Z,57.70
2019-05-01T00:51:06.045Z,63.37
2019-05-01T00:53:32.978Z,57.27
2019-05-01T00:56:19.560Z,63.20
2019-05-01T00:59:08.822Z,58.77
2019-05-01T01:01:56.556Z,54.07
2019-05-01T01:04:23.472Z,53.67
2019-05-01T01:06:50.418Z,53.63
2019-05-01T01:09:17.639Z,56.17
2019-05-01T01:11:44.598Z,57.63
2019-05-01T01:14:11.525Z,56.73
2019-05-01T01:16:38.486Z,58.30
2019-05-01T01:19:05.425Z,57.23
2019-05-01T01:21:32.373Z,55.77
2019-05-01T01:23:59.802Z,61.23
2019-05-01T01:26:26.764Z,61.73
2019-05-01T01:28:53.693Z,57.97
2019-05-01T01:31:20.640Z,61.40
2019-05-01T01:33:47.561Z,62.17
2019-05-01T01:36:14.528Z,60.97
2019-05-01T01:38:41.443Z,56.37
2019-05-01T01:41:08.406Z,57.93
2019-05-01T01:43:49.129Z,63.73
2019-05-01T01:46:18.090Z,69.50
2019-05-01T01:48:45.330Z,54.13
2019-05-01T01:51:12.347Z,62.57
2019-05-01T01:53:39.531Z,60.57
2019-05-01T01:56:06.454Z,63.40
2019-05-01T01:58:33.520Z,58.03
2019-05-01T02:01:13.622Z,60.40
2019-05-01T02:03:43.185Z,53.97
2019-05-01T02:06:10.473Z,63.13
2019-05-01T02:08:37.649Z,58.80
2019-05-01T02:11:04.671Z,53.10
2019-05-01T02:13:31.617Z,58.10
2019-05-01T02:15:58.534Z,57.03
2019-05-01T02:18:25.478Z,59.33
2019-05-01T02:20:52.397Z,61.80
2019-05-01T02:23:19.358Z,62.20
2019-05-01T02:25:46.266Z,62.50
2019-05-01T02:28:34.032Z,60.47
2019-05-01T02:31:27.395Z,57.30
2019-05-01T02:33:43.686Z,56.70
2019-05-01T02:36:12.733Z,64.37
2019-05-01T02:38:40.697Z,64.00
2019-05-01T02:41:09.882Z,58.60
2019-05-01T02:43:38.957Z,55.20
2019-05-01T02:46:09.503Z,60.33
2019-05-01T02:48:40.817Z,61.80
2019-05-01T02:51:09.255Z,67.87
2019-05-01T02:53:39.716Z,61.63
2019-05-01T02:56:33.802Z,61.63
2019-05-01T02:59:03.478Z,64.50
2019-05-01T03:01:45.717Z,61.80
2019-05-01T03:03:59.863Z,63.40
2019-05-01T03:06:28.887Z,61.50
2019-05-01T03:08:56.860Z,57.63
2019-05-01T03:11:23.832Z,73.63
2019-05-01T03:13:53.349Z,65.23
2019-05-01T03:16:21.504Z,55.63
2019-05-01T03:18:51.596Z,61.10
2019-05-01T03:21:39.093Z,62.23
2019-05-01T03:24:11.819Z,55.00
2019-05-01T03:26:38.744Z,66.40
2019-05-01T03:29:06.619Z,68.27
2019-05-01T03:31:33.663Z,74.43
2019-05-01T03:34:01.202Z,72.87
2019-05-01T03:36:28.441Z,70.10
2019-05-01T03:38:55.611Z,63.60
2019-05-01T03:41:22.541Z,67.10
2019-05-01T03:43:49.740Z,73.83
2019-05-01T03:46:16.899Z,65.80
2019-05-01T03:48:43.979Z,72.33
2019-05-01T03:51:11.120Z,63.93
2019-05-01T03:53:38.113Z,67.43
2019-05-01T03:56:05.215Z,70.00
2019-05-01T03:58:32.571Z,80.27
2019-05-01T04:01:28.202Z,71.27
2019-05-01T04:03:58.774Z,76.83
2019-05-01T04:06:26.625Z,70.17
2019-05-01T04:08:53.884Z,69.60
2019-05-01T04:11:21.197Z,63.33
2019-05-01T04:13:48.487Z,76.03
2019-05-01T04:16:15.977Z,69.70
2019-05-01T04:18:42.951Z,66.73
2019-05-01T04:21:10.173Z,67.90
2019-05-01T04:23:37.343Z,77.73
2019-05-01T04:26:05.579Z,69.47
2019-05-01T04:28:55.805Z,66.23
2019-05-01T04:31:42.468Z,67.97
2019-05-01T04:34:25.408Z,84.20
2019-05-01T04:36:54.799Z,67.53
2019-05-01T04:39:21.759Z,70.73
2019-05-01T04:41:49.708Z,66.80
2019-05-01T04:44:16.657Z,69.37
2019-05-01T04:46:43.821Z,63.43
2019-05-01T04:49:11.196Z,66.10
2019-05-01T04:51:38.737Z,63.03
2019-05-01T04:54:06.214Z,71.23
2019-05-01T04:56:33.459Z,67.20
2019-05-01T04:59:00.420Z,68.43
2019-05-01T05:01:34.439Z,73.33
2019-05-01T05:04:01.495Z,63.83
2019-05-01T05:06:28.433Z,65.50
2019-05-01T05:08:55.990Z,80.17
2019-05-01T05:11:26.007Z,79.57
2019-05-01T05:14:09.572Z,83.60
2019-05-01T05:17:04.790Z,85.03
2019-05-01T05:19:31.852Z,85.53
2019-05-01T05:21:58.888Z,78.67
2019-05-01T05:24:25.938Z,84.17
2019-05-01T05:26:53.361Z,82.20
2019-05-01T05:29:22.534Z,86.87
2019-05-01T05:31:51.950Z,70.20
2019-05-01T05:34:19.715Z,94.07
2019-05-01T05:36:48.364Z,76.17
2019-05-01T05:39:26.030Z,75.73
2019-05-01T05:41:54.571Z,75.20
2019-05-01T05:44:22.018Z,80.17
2019-05-01T05:46:49.052Z,84.97
2019-05-01T05:49:16.318Z,77.83
2019-05-01T05:51:53.932Z,71.83
2019-05-01T05:54:40.428Z,78.83
2019-05-01T05:57:16.596Z,74.80
2019-05-01T05:59:49.108Z,70.27
2019-05-01T06:02:31.484Z,71.43
2019-05-01T06:05:13.213Z,81.70
2019-05-01T06:08:04.000Z,76.07
2019-05-01T06:10:41.204Z,73.43
2019-05-01T06:13:21.853Z,69.47
2019-05-01T06:16:12.203Z,73.80
2019-05-01T06:18:51.277Z,74.07
2019-05-01T06:21:25.482Z,73.90
2019-05-01T06:24:05.956Z,85.17
2019-05-01T06:26:37.594Z,77.00
2019-05-01T06:29:02.121Z,84.17
2019-05-01T06:31:30.140Z,77.20
2019-05-01T06:33:57.173Z,80.47
2019-05-01T06:36:24.498Z,81.53
2019-05-01T06:38:52.149Z,80.57
2019-05-01T06:41:19.201Z,78.33
2019-05-01T06:44:02.103Z,75.80
2019-05-01T06:46:46.397Z,66.80
2019-05-01T06:49:42.876Z,70.40
2019-05-01T06:52:11.587Z,73.77
2019-05-01T06:54:39.140Z,73.67
2019-05-01T06:57:06.580Z,81.43
2019-05-01T06:59:36.568Z,86.00
2019-05-01T07:02:03.827Z,78.83
2019-05-01T07:04:32.330Z,84.43
2019-05-01T07:07:06.738Z,79.17
2019-05-01T07:09:32.542Z,79.37
2019-05-01T07:12:03.163Z,83.30
2019-05-01T07:14:30.200Z,88.00
2019-05-01T07:16:57.162Z,95.87
2019-05-01T07:19:42.579Z,96.57
2019-05-01T07:22:09.542Z,95.13
2019-05-01T07:24:36.475Z,90.00
2019-05-01T07:27:03.449Z,95.47
2019-05-01T07:29:32.966Z,88.17
2019-05-01T07:32:01.647Z,87.30
2019-05-01T07:34:28.994Z,81.33
2019-05-01T07:36:56.059Z,82.50
2019-05-01T07:39:23.008Z,73.87
2019-05-01T07:41:50.083Z,85.20
2019-05-01T07:44:33.913Z,77.43
2019-05-01T07:47:25.893Z,77.40
2019-05-01T07:49:56.912Z,75.10
2019-05-01T07:52:24.535Z,78.70
2019-05-01T07:54:53.408Z,78.47
2019-05-01T07:57:23.064Z,64.90
2019-05-01T07:59:50.021Z,68.10
2019-05-01T08:02:17.289Z,69.83
2019-05-01T08:04:44.208Z,66.03
2019-05-01T08:07:11.170Z,62.53
2019-05-01T08:09:38.221Z,68.20
2019-05-01T08:12:05.177Z,62.97
2019-05-01T08:14:32.134Z,67.20
2019-05-01T08:16:59.097Z,76.37
2019-05-01T08:19:34.714Z,70.53
2019-05-01T08:22:08.757Z,76.90
2019-05-01T08:24:35.722Z,71.73
2019-05-01T08:27:02.789Z,72.20
2019-05-01T08:29:48.130Z,72.93
2019-05-01T08:32:40.957Z,78.90
2019-05-01T08:35:10.147Z,76.83
2019-05-01T08:37:37.184Z,68.67
2019-05-01T08:40:05.296Z,72.40
2019-05-01T08:42:32.287Z,76.50
2019-05-01T08:45:21.619Z,71.70
2019-05-01T08:47:56.814Z,71.40
2019-05-01T08:50:25.982Z,68.23
2019-05-01T08:52:53.123Z,70.13
2019-05-01T08:55:20.048Z,77.87
2019-05-01T08:57:47.017Z,68.50
2019-05-01T09:00:14.751Z,64.53
2019-05-01T09:02:43.429Z,68.30
2019-05-01T09:05:27.753Z,62.63
2019-05-01T09:07:39.627Z,67.17
2019-05-01T09:10:09.069Z,67.17
2019-05-01T09:12:35.840Z,69.87
2019-05-01T09:15:07.120Z,71.03
2019-05-01T09:17:32.060Z,66.40
2019-05-01T09:19:58.994Z,67.33
2019-05-01T09:22:26.635Z,64.50
2019-05-01T09:24:53.635Z,62.10
2019-05-01T09:27:29.254Z,58.63
2019-05-01T09:29:58.458Z,64.77
2019-05-01T09:32:25.468Z,62.57
2019-05-01T09:34:52.476Z,57.33
2019-05-01T09:37:19.578Z,55.13
2019-05-01T09:39:47.454Z,60.23
2019-05-01T09:42:36.849Z,58.53
2019-05-01T09:45:25.360Z,62.00
2019-05-01T09:47:53.128Z,59.57
2019-05-01T09:50:20.191Z,54.03
2019-05-01T09:53:01.124Z,55.60
2019-05-01T09:55:49.136Z,55.07
2019-05-01T09:58:16.123Z,54.93
2019-05-01T10:00:43.067Z,51.67
2019-05-01T10:03:13.203Z,54.67
2019-05-01T10:05:42.883Z,61.37
2019-05-01T10:08:08.144Z,53.73
2019-05-01T10:10:37.015Z,54.23
2019-05-01T10:13:04.166Z,45.87
2019-05-01T10:15:31.181Z,51.43
2019-05-01T10:17:58.156Z,53.67
2019-05-01T10:20:25.118Z,50.77
2019-05-01T10:22:52.071Z,45.97
2019-05-01T10:25:18.993Z,48.73
2019-05-01T10:27:53.059Z,50.53
2019-05-01T10:30:45.641Z,48.70
2019-05-01T10:33:16.557Z,46.57
2019-05-01T10:36:18.311Z,52.20
2019-05-01T10:38:39.951Z,44.60
2019-05-01T10:41:09.291Z,46.43
2019-05-01T10:43:35.492Z,48.60
2019-05-01T10:46:02.518Z,48.03
2019-05-01T10:48:29.536Z,47.87
2019-05-01T10:50:56.506Z,47.77
2019-05-01T10:53:23.475Z,47.40
2019-05-01T10:55:50.453Z,46.33
2019-05-01T10:58:18.940Z,48.30
2019-05-01T11:00:48.665Z,49.97
2019-05-01T11:03:15.718Z,42.33
2019-05-01T11:05:55.043Z,44.47
2019-05-01T11:08:11.538Z,44.50
2019-05-01T11:10:38.521Z,51.87
2019-05-01T11:13:07.795Z,46.90
2019-05-01T11:15:34.329Z,41.17
2019-05-01T11:18:01.261Z,47.93
2019-05-01T11:20:28.231Z,47.07
2019-05-01T11:22:55.178Z,45.80
2019-05-01T11:25:22.144Z,49.43
2019-05-01T11:27:49.080Z,43.97
2019-05-01T11:30:16.359Z,45.00
2019-05-01T11:33:01.723Z,44.90
2019-05-01T11:35:48.346Z,45.60
2019-05-01T11:38:25.216Z,47.33
2019-05-01T11:40:56.636Z,41.50
2019-05-01T11:43:23.560Z,44.37
2019-05-01T11:45:50.526Z,51.10
2019-05-01T11:48:17.479Z,43.70
2019-05-01T11:50:44.445Z,44.90
2019-05-01T11:53:11.382Z,44.00
2019-05-01T11:55:38.352Z,53.00
2019-05-01T11:58:05.281Z,54.47
2019-05-01T12:00:32.243Z,46.73
2019-05-01T12:02:59.172Z,48.63
2019-05-01T12:05:26.140Z,45.10
2019-05-01T12:07:53.168Z,46.33
2019-05-01T12:10:20.148Z,44.00
2019-05-01T12:12:48.301Z,42.00
2019-05-01T12:15:16.370Z,48.13
2019-05-01T12:17:47.854Z,45.83
2019-05-01T12:20:15.666Z,46.27
2019-05-01T12:22:42.628Z,44.43
2019-05-01T12:25:10.002Z,46.70
2019-05-01T12:27:36.970Z,46.20
2019-05-01T12:30:05.286Z,46.83
2019-05-01T12:32:32.439Z,48.03
2019-05-01T12:34:59.408Z,44.27
2019-05-01T12:37:32.175Z,49.93
2019-05-01T12:39:59.186Z,50.83
2019-05-01T12:42:26.643Z,43.70
2019-05-01T12:44:53.621Z,49.50
2019-05-01T12:47:40.182Z,48.77
2019-05-01T12:50:07.713Z,50.17
2019-05-01T12:52:50.704Z,46.43
2019-05-01T12:55:27.155Z,51.87
2019-05-01T12:57:54.106Z,56.90
2019-05-01T13:00:25.535Z,47.70
2019-05-01T13:02:52.465Z,57.23
2019-05-01T13:05:19.456Z,47.40
2019-05-01T13:07:46.421Z,48.10
2019-05-01T13:10:13.423Z,49.67
2019-05-01T13:12:40.378Z,46.73
2019-05-01T13:15:07.318Z,42.20
2019-05-01T13:17:34.287Z,48.70
2019-05-01T13:20:01.220Z,42.47
2019-05-01T13:22:28.267Z,48.80
2019-05-01T13:24:55.204Z,46.90
2019-05-01T13:27:50.606Z,47.70
2019-05-01T13:30:37.187Z,55.50
2019-05-01T13:33:04.413Z,54.60
2019-05-01T13:35:31.425Z,49.70
2019-05-01T13:37:58.411Z,46.10
2019-05-01T13:40:25.384Z,47.20
2019-05-01T13:42:52.316Z,47.70
2019-05-01T13:45:19.234Z,45.93
2019-05-01T13:47:46.282Z,44.47
2019-05-01T13:50:13.928Z,44.53
2019-05-01T13:52:40.890Z,46.00
2019-05-01T13:55:08.341Z,49.67
2019-05-01T13:57:35.307Z,44.87
2019-05-01T14:00:02.570Z,45.10
2019-05-01T14:02:29.560Z,48.10
2019-05-01T14:04:56.517Z,50.17
2019-05-01T14:07:23.482Z,51.53
2019-05-01T14:09:50.523Z,47.63
2019-05-01T14:12:17.717Z,48.53
2019-05-01T14:14:44.695Z,48.33
2019-05-01T14:17:11.700Z,48.57
2019-05-01T14:19:41.260Z,46.80
2019-05-01T14:22:26.438Z,45.70
2019-05-01T14:24:56.110Z,46.57
2019-05-01T14:27:23.086Z,47.50
2019-05-01T14:29:57.681Z,47.20
2019-05-01T14:32:25.373Z,48.93
2019-05-01T14:34:52.319Z,44.23
2019-05-01T14:37:29.414Z,44.80
2019-05-01T14:39:48.173Z,45.80
2019-05-01T14:42:15.134Z,43.73
2019-05-01T14:44:42.064Z,43.70
2019-05-01T14:47:09.076Z,49.87
2019-05-01T14:49:36.022Z,44.20
2019-05-01T14:52:05.032Z,46.13
2019-05-01T14:54:32.413Z,40.23
2019-05-01T14:56:59.407Z,38.13
2019-05-01T14:59:26.371Z,41.43
2019-05-01T15:01:53.354Z,38.13
2019-05-01T15:04:20.288Z,44.43
2019-05-01T15:06:47.246Z,40.77
2019-05-01T15:09:14.174Z,40.33
2019-05-01T15:11:42.576Z,37.33
2019-05-01T15:14:29.121Z,38.77
2019-05-01T15:17:19.773Z,37.63
2019-05-01T15:20:12.164Z,39.63
2019-05-01T15:22:39.152Z,38.93
2019-05-01T15:25:06.211Z,40.47
2019-05-01T15:27:33.178Z,43.37
2019-05-01T15:30:00.097Z,42.80
2019-05-01T15:32:27.060Z,43.07
2019-05-01T15:34:54.004Z,40.93
2019-05-01T15:37:20.990Z,40.23
2019-05-01T15:39:58.426Z,41.07
2019-05-01T15:42:47.948Z,39.77
2019-05-01T15:45:14.972Z,43.33
2019-05-01T15:47:41.941Z,37.63
2019-05-01T15:50:08.882Z,40.60
2019-05-01T15:52:35.846Z,44.10
2019-05-01T15:55:03.207Z,49.30
2019-05-01T15:57:30.170Z,44.70
2019-05-01T15:59:57.110Z,43.63
2019-05-01T16:02:24.070Z,39.43
2019-05-01T16:04:51.000Z,41.03
2019-05-01T16:07:17.961Z,39.40
2019-05-01T16:09:44.889Z,36.87
2019-05-01T16:12:23.670Z,40.13
2019-05-01T16:14:50.831Z,43.00
2019-05-01T16:17:17.783Z,42.57
2019-05-01T16:19:44.788Z,35.27
2019-05-01T16:22:11.767Z,40.27
2019-05-01T16:24:38.715Z,40.73
2019-05-01T16:27:05.837Z,45.90
2019-05-01T16:29:32.828Z,44.57
2019-05-01T16:31:59.756Z,40.83
2019-05-01T16:34:26.720Z,36.97
2019-05-01T16:36:53.692Z,47.53
2019-05-01T16:39:52.159Z,38.97
2019-05-01T16:42:21.631Z,38.10
2019-05-01T16:45:37.967Z,43.53
2019-05-01T16:48:05.053Z,40.33
2019-05-01T16:50:32.004Z,39.43
2019-05-01T16:52:58.997Z,38.60
2019-05-01T16:55:26.031Z,37.37
2019-05-01T16:57:53.034Z,34.30
2019-05-01T17:00:37.383Z,34.70
2019-05-01T17:03:12.871Z,38.30
2019-05-01T17:05:50.453Z,39.70
2019-05-01T17:08:35.901Z,35.93
2019-05-01T17:10:58.490Z,35.97
2019-05-01T17:13:25.492Z,32.70
2019-05-01T17:15:52.432Z,37.87
2019-05-01T17:18:20.067Z,44.93
2019-05-01T17:20:47.039Z,38.70
2019-05-01T17:23:14.003Z,39.43
2019-05-01T17:25:41.290Z,38.37
2019-05-01T17:28:09.416Z,37.73
2019-05-01T17:30:42.317Z,37.00
2019-05-01T17:33:09.296Z,40.37
2019-05-01T17:35:36.894Z,48.33
2019-05-01T17:38:05.258Z,42.17
2019-05-01T17:40:32.236Z,38.73
2019-05-01T17:42:59.179Z,37.53
2019-05-01T17:45:29.917Z,38.43
2019-05-01T17:47:57.884Z,38.27
2019-05-01T17:50:23.925Z,40.13
2019-05-01T17:52:50.986Z,38.37
2019-05-01T17:55:17.965Z,37.33
2019-05-01T17:57:44.891Z,43.20
2019-05-01T18:00:38.859Z,47.27
2019-05-01T18:03:13.658Z,41.60
2019-05-01T18:05:56.181Z,36.87
2019-05-01T18:08:23.802Z,38.33
2019-05-01T18:10:50.801Z,39.70
2019-05-01T18:13:17.732Z,40.90
2019-05-01T18:15:45.260Z,47.40
2019-05-01T18:18:15.112Z,41.37
2019-05-01T18:20:41.177Z,42.20
2019-05-01T18:23:42.858Z,44.10
2019-05-01T18:26:45.042Z,45.17
2019-05-01T18:29:22.514Z,43.90
2019-05-01T18:31:49.441Z,48.07
2019-05-01T18:34:16.418Z,40.27
2019-05-01T18:36:48.904Z,41.23
2019-05-01T18:39:30.777Z,43.53
2019-05-01T18:42:00.703Z,42.60
2019-05-01T18:44:27.676Z,41.67
2019-05-01T18:46:54.709Z,40.90
2019-05-01T18:49:21.668Z,51.83
2019-05-01T18:51:48.599Z,41.27
2019-05-01T18:54:15.558Z,41.43
2019-05-01T18:56:42.592Z,39.10
2019-05-01T18:59:09.567Z,46.60
2019-05-01T19:01:36.605Z,41.40
2019-05-01T19:04:03.892Z,37.60
2019-05-01T19:06:40.970Z,46.80
2019-05-01T19:08:59.721Z,42.60
2019-05-01T19:11:26.758Z,40.33
2019-05-01T19:13:53.804Z,43.00
2019-05-01T19:16:20.797Z,43.73
2019-05-01T19:18:47.733Z,44.10
2019-05-01T19:21:16.883Z,45.43
2019-05-01T19:23:43.815Z,43.63
2019-05-01T19:26:11.176Z,45.10
2019-05-01T19:28:38.114Z,43.63
2019-05-01T19:31:05.103Z,45.47
2019-05-01T19:33:32.045Z,51.77
2019-05-01T19:36:02.722Z,48.87
2019-05-01T19:38:29.515Z,46.80
2019-05-01T19:40:56.770Z,47.40
2019-05-01T19:43:23.723Z,44.33
2019-05-01T19:45:50.796Z,44.30
2019-05-01T19:48:19.403Z,48.20
2019-05-01T19:50:48.353Z,47.93
2019-05-01T19:53:15.965Z,45.43
2019-05-01T19:55:44.965Z,46.90
2019-05-01T19:58:12.278Z,47.10
2019-05-01T20:01:05.107Z,46.97
2019-05-01T20:03:36.317Z,49.40
2019-05-01T20:06:05.694Z,49.83
2019-05-01T20:08:31.396Z,49.67
2019-05-01T20:10:58.377Z,50.97
2019-05-01T20:13:25.324Z,52.13
2019-05-01T20:15:52.294Z,46.13
2019-05-01T20:18:19.248Z,54.77
2019-05-01T20:20:46.222Z,48.80
2019-05-01T20:23:13.154Z,50.20
2019-05-01T20:25:40.131Z,53.70
2019-05-01T20:28:07.085Z,42.57
2019-05-01T20:30:34.062Z,49.87
2019-05-01T20:33:02.178Z,47.57
2019-05-01T20:35:30.240Z,55.67
2019-05-01T20:37:57.269Z,51.20
2019-05-01T20:40:24.484Z,48.17
2019-05-01T20:42:51.429Z,51.97
2019-05-01T20:45:19.660Z,51.97
2019-05-01T20:47:48.198Z,52.27
2019-05-01T20:50:15.692Z,55.37
2019-05-01T20:52:42.681Z,47.57
2019-05-01T20:55:09.729Z,49.27
2019-05-01T20:57:38.648Z,47.93
2019-05-01T21:00:06.411Z,52.67
2019-05-01T21:02:33.385Z,46.23
2019-05-01T21:05:32.186Z,48.97
2019-05-01T21:08:19.624Z,46.50
2019-05-01T21:10:54.629Z,44.23
2019-05-01T21:13:23.032Z,42.97
2019-05-01T21:15:50.465Z,43.70
2019-05-01T21:18:20.845Z,41.80
2019-05-01T21:20:46.271Z,41.63
2019-05-01T21:23:14.370Z,43.03
2019-05-01T21:25:41.385Z,41.00
2019-05-01T21:28:08.364Z,38.47
2019-05-01T21:30:38.714Z,40.13
2019-05-01T21:33:09.687Z,36.30
2019-05-01T21:35:34.181Z,42.00
2019-05-01T21:38:02.638Z,42.57
2019-05-01T21:40:40.145Z,42.10
2019-05-01T21:42:58.504Z,48.87
2019-05-01T21:45:25.442Z,38.50
2019-05-01T21:47:52.923Z,41.00
2019-05-01T21:50:22.840Z,37.60
2019-05-01T21:52:48.824Z,34.10
2019-05-01T21:55:15.768Z,33.30
2019-05-01T21:57:42.734Z,35.73
2019-05-01T22:00:10.281Z,32.97
2019-05-01T22:02:41.674Z,37.37
2019-05-01T22:05:06.756Z,43.70
2019-05-01T22:07:33.714Z,33.83
2019-05-01T22:10:00.917Z,33.17
2019-05-01T22:12:27.862Z,35.70
2019-05-01T22:14:58.330Z,32.00
2019-05-01T22:17:41.136Z,33.23
2019-05-01T22:20:10.234Z,33.97
2019-05-01T22:22:53.735Z,28.10
2019-05-01T22:25:42.994Z,31.17
2019-05-01T22:28:18.738Z,32.87
2019-05-01T22:30:52.489Z,35.10
2019-05-01T22:33:19.447Z,36.37
2019-05-01T22:35:50.976Z,32.73
2019-05-01T22:38:18.049Z,33.83
2019-05-01T22:41:06.017Z,33.30
2019-05-01T22:43:28.051Z,33.27
2019-05-01T22:45:56.217Z,44.27
2019-05-01T22:48:24.165Z,32.00
2019-05-01T22:50:55.508Z,34.10
2019-05-01T22:53:22.581Z,38.37
2019-05-01T22:55:49.599Z,29.63
2019-05-01T22:58:16.600Z,29.13
2019-05-01T23:00:52.416Z,34.90
2019-05-01T23:03:40.828Z,31.07
2019-05-01T23:06:06.269Z,29.73
2019-05-01T23:08:34.058Z,35.13
2019-05-01T23:11:01.015Z,29.40
2019-05-01T23:13:28.246Z,31.73
2019-05-01T23:15:56.193Z,35.17
2019-05-01T23:18:24.098Z,29.40
2019-05-01T23:20:51.100Z,29.43
2019-05-01T23:23:18.249Z,29.23
2019-05-01T23:25:45.291Z,29.07
2019-05-01T23:28:12.265Z,29.27
2019-05-01T23:30:39.240Z,30.10
2019-05-01T23:33:06.246Z,26.40
2019-05-01T23:35:33.758Z,30.70
2019-05-01T23:38:02.229Z,31.90
2019-05-01T23:40:32.295Z,33.10
2019-05-01T23:43:00.062Z,30.33
2019-05-01T23:45:27.741Z,34.03
2019-05-01T23:47:54.961Z,34.87
2019-05-01T23:50:25.016Z,37.57
2019-05-01T23:52:52.683Z,37.00
2019-05-01T23:55:22.556Z,33.87
2019-05-01T23:57:50.092Z,32.57
